sensor_id;sensor_type;location;lat;lon;timestamp;pressure;altitude;pressure_sealevel;temperature;humidity
37856;BME280;23694;43.274;26.924;2023-09-18T00:00:11;99463.00;;;17.37;92.90
37856;BME280;23694;43.274;26.924;2023-09-18T00:03:00;99462.03;;;17.38;92.65
37856;BME280;23694;43.274;26.924;2023-09-18T00:05:42;99450.13;;;17.23;93.50
37856;BME280;23694;43.274;26.924;2023-09-18T00:08:31;99460.16;;;17.20;93.97
37856;BME280;23694;43.274;26.924;2023-09-18T00:11:06;99465.88;;;17.25;94.02
37856;BME280;23694;43.274;26.924;2023-09-18T00:13:59;99451.81;;;17.24;93.87
37856;BME280;23694;43.274;26.924;2023-09-18T00:16:42;99450.97;;;17.24;93.62
37856;BME280;23694;43.274;26.924;2023-09-18T00:19:26;99450.00;;;17.25;94.14
37856;BME280;23694;43.274;26.924;2023-09-18T00:22:07;99456.56;;;17.30;94.15
37856;BME280;23694;43.274;26.924;2023-09-18T00:24:45;99452.81;;;17.33;93.91
37856;BME280;23694;43.274;26.924;2023-09-18T00:27:37;99446.53;;;17.34;93.69
37856;BME280;23694;43.274;26.924;2023-09-18T00:30:23;99446.97;;;17.39;93.90
37856;BME280;23694;43.274;26.924;2023-09-18T00:33:07;99448.78;;;17.38;94.05
37856;BME280;23694;43.274;26.924;2023-09-18T00:36:02;99453.09;;;17.39;93.81
37856;BME280;23694;43.274;26.924;2023-09-18T00:41:41;99451.72;;;17.45;94.06
37856;BME280;23694;43.274;26.924;2023-09-18T00:44:23;99445.75;;;17.53;93.44
37856;BME280;23694;43.274;26.924;2023-09-18T00:47:07;99446.44;;;17.55;93.13
37856;BME280;23694;43.274;26.924;2023-09-18T00:49:43;99443.81;;;17.55;93.57
37856;BME280;23694;43.274;26.924;2023-09-18T00:52:30;99453.19;;;17.59;93.33
37856;BME280;23694;43.274;26.924;2023-09-18T00:55:16;99450.25;;;17.62;93.20
37856;BME280;23694;43.274;26.924;2023-09-18T00:57:57;99449.41;;;17.61;92.92
37856;BME280;23694;43.274;26.924;2023-09-18T01:00:34;99450.41;;;17.60;93.21
37856;BME280;23694;43.274;26.924;2023-09-18T01:03:04;99447.47;;;17.63;93.20
37856;BME280;23694;43.274;26.924;2023-09-18T01:05:38;99444.13;;;17.61;93.72
37856;BME280;23694;43.274;26.924;2023-09-18T01:08:27;99448.41;;;17.53;94.29
37856;BME280;23694;43.274;26.924;2023-09-18T01:11:40;99448.72;;;17.59;94.29
37856;BME280;23694;43.274;26.924;2023-09-18T01:14:16;99449.28;;;17.63;94.44
37856;BME280;23694;43.274;26.924;2023-09-18T01:17:11;99446.78;;;17.61;94.49
37856;BME280;23694;43.274;26.924;2023-09-18T01:20:04;99445.97;;;17.70;93.81
37856;BME280;23694;43.274;26.924;2023-09-18T01:22:52;99451.84;;;17.74;94.08
37856;BME280;23694;43.274;26.924;2023-09-18T01:28:33;99441.38;;;17.72;94.07
37856;BME280;23694;43.274;26.924;2023-09-18T01:31:06;99444.16;;;17.71;93.95
37856;BME280;23694;43.274;26.924;2023-09-18T01:36:23;99438.53;;;17.64;93.95
37856;BME280;23694;43.274;26.924;2023-09-18T01:39:08;99448.91;;;17.67;94.03
37856;BME280;23694;43.274;26.924;2023-09-18T01:44:33;99448.72;;;17.59;94.19
37856;BME280;23694;43.274;26.924;2023-09-18T01:47:11;99448.44;;;17.62;94.50
37856;BME280;23694;43.274;26.924;2023-09-18T01:49:50;99443.16;;;17.62;94.52
37856;BME280;23694;43.274;26.924;2023-09-18T01:52:48;99446.34;;;17.56;94.34
37856;BME280;23694;43.274;26.924;2023-09-18T01:55:44;99451.03;;;17.43;95.31
37856;BME280;23694;43.274;26.924;2023-09-18T01:58:24;99454.25;;;17.47;95.47
37856;BME280;23694;43.274;26.924;2023-09-18T02:01:02;99444.47;;;17.47;95.08
37856;BME280;23694;43.274;26.924;2023-09-18T02:03:46;99444.88;;;17.33;95.72
37856;BME280;23694;43.274;26.924;2023-09-18T02:06:27;99438.59;;;17.34;95.48
37856;BME280;23694;43.274;26.924;2023-09-18T02:09:07;99432.88;;;17.29;95.74
37856;BME280;23694;43.274;26.924;2023-09-18T02:11:59;99443.75;;;17.26;95.99
37856;BME280;23694;43.274;26.924;2023-09-18T02:14:41;99448.75;;;17.29;95.50
37856;BME280;23694;43.274;26.924;2023-09-18T02:17:47;99440.53;;;17.32;95.34
37856;BME280;23694;43.274;26.924;2023-09-18T02:20:31;99449.31;;;17.23;95.12
37856;BME280;23694;43.274;26.924;2023-09-18T02:23:40;99446.09;;;17.19;95.27
37856;BME280;23694;43.274;26.924;2023-09-18T02:29:38;99461.75;;;17.01;95.94
37856;BME280;23694;43.274;26.924;2023-09-18T02:32:34;99456.31;;;16.93;96.20
37856;BME280;23694;43.274;26.924;2023-09-18T02:38:02;99455.66;;;16.80;96.37
37856;BME280;23694;43.274;26.924;2023-09-18T02:40:48;99461.06;;;16.78;96.62
37856;BME280;23694;43.274;26.924;2023-09-18T02:43:37;99457.19;;;16.83;96.50
37856;BME280;23694;43.274;26.924;2023-09-18T02:46:12;99458.75;;;16.85;96.89
37856;BME280;23694;43.274;26.924;2023-09-18T02:48:56;99464.38;;;16.71;97.02
37856;BME280;23694;43.274;26.924;2023-09-18T02:51:33;99463.00;;;16.76;96.60
37856;BME280;23694;43.274;26.924;2023-09-18T02:54:29;99462.19;;;16.76;96.37
37856;BME280;23694;43.274;26.924;2023-09-18T02:57:14;99468.31;;;16.76;95.86
37856;BME280;23694;43.274;26.924;2023-09-18T02:59:57;99459.94;;;16.71;96.33
37856;BME280;23694;43.274;26.924;2023-09-18T03:02:46;99468.13;;;16.68;96.16
37856;BME280;23694;43.274;26.924;2023-09-18T03:05:26;99470.50;;;16.71;95.96
37856;BME280;23694;43.274;26.924;2023-09-18T03:08:06;99470.63;;;16.70;95.81
37856;BME280;23694;43.274;26.924;2023-09-18T03:10:38;99466.81;;;16.63;95.62
37856;BME280;23694;43.274;26.924;2023-09-18T03:16:03;99468.44;;;16.54;95.62
37856;BME280;23694;43.274;26.924;2023-09-18T03:18:50;99471.34;;;16.51;95.93
37856;BME280;23694;43.274;26.924;2023-09-18T03:21:25;99468.38;;;16.44;96.08
37856;BME280;23694;43.274;26.924;2023-09-18T03:24:05;99467.41;;;16.45;95.79
37856;BME280;23694;43.274;26.924;2023-09-18T03:27:02;99469.72;;;16.39;96.19
37856;BME280;23694;43.274;26.924;2023-09-18T03:29:42;99469.53;;;16.31;96.87
37856;BME280;23694;43.274;26.924;2023-09-18T03:32:21;99471.47;;;16.29;96.49
37856;BME280;23694;43.274;26.924;2023-09-18T03:35:04;99474.34;;;16.26;96.75
37856;BME280;23694;43.274;26.924;2023-09-18T03:40:44;99478.31;;;16.20;96.83
37856;BME280;23694;43.274;26.924;2023-09-18T03:43:31;99483.03;;;16.16;96.97
37856;BME280;23694;43.274;26.924;2023-09-18T03:46:16;99471.34;;;15.98;98.23
37856;BME280;23694;43.274;26.924;2023-09-18T03:49:03;99467.72;;;15.99;97.91
37856;BME280;23694;43.274;26.924;2023-09-18T03:51:39;99469.84;;;16.05;97.49
37856;BME280;23694;43.274;26.924;2023-09-18T03:54:26;99475.28;;;16.04;98.11
37856;BME280;23694;43.274;26.924;2023-09-18T03:57:16;99477.53;;;16.08;97.35
37856;BME280;23694;43.274;26.924;2023-09-18T03:59:53;99469.16;;;16.03;97.48
37856;BME280;23694;43.274;26.924;2023-09-18T04:02:38;99485.66;;;16.16;97.04
37856;BME280;23694;43.274;26.924;2023-09-18T04:05:15;99483.22;;;16.25;96.28
37856;BME280;23694;43.274;26.924;2023-09-18T04:08:00;99493.34;;;16.20;96.31
37856;BME280;23694;43.274;26.924;2023-09-18T04:10:41;99491.91;;;16.27;95.94
37856;BME280;23694;43.274;26.924;2023-09-18T04:13:17;99492.75;;;16.48;95.48
37856;BME280;23694;43.274;26.924;2023-09-18T04:16:04;99487.09;;;16.94;93.82
37856;BME280;23694;43.274;26.924;2023-09-18T04:18:55;99495.09;;;17.54;91.08
37856;BME280;23694;43.274;26.924;2023-09-18T04:21:41;99492.84;;;18.18;86.35
37856;BME280;23694;43.274;26.924;2023-09-18T04:24:20;99498.84;;;18.78;82.96
37856;BME280;23694;43.274;26.924;2023-09-18T04:27:10;99487.78;;;19.29;78.99
37856;BME280;23694;43.274;26.924;2023-09-18T04:29:56;99493.38;;;19.63;76.76
37856;BME280;23694;43.274;26.924;2023-09-18T04:32:44;99507.41;;;20.01;75.03
37856;BME280;23694;43.274;26.924;2023-09-18T04:35:26;99504.56;;;20.48;72.00
37856;BME280;23694;43.274;26.924;2023-09-18T04:38:10;99504.13;;;21.04;68.43
37856;BME280;23694;43.274;26.924;2023-09-18T04:41:05;99497.41;;;21.52;65.46
37856;BME280;23694;43.274;26.924;2023-09-18T04:43:54;99500.44;;;22.16;62.90
37856;BME280;23694;43.274;26.924;2023-09-18T04:46:40;99501.59;;;22.94;59.66
37856;BME280;23694;43.274;26.924;2023-09-18T04:49:26;99507.47;;;23.84;56.09
37856;BME280;23694;43.274;26.924;2023-09-18T04:52:03;99509.34;;;24.38;54.21
37856;BME280;23694;43.274;26.924;2023-09-18T04:54:51;99501.44;;;24.96;52.20
37856;BME280;23694;43.274;26.924;2023-09-18T04:57:58;99491.84;;;25.76;49.48
37856;BME280;23694;43.274;26.924;2023-09-18T05:03:36;99489.19;;;27.10;45.83
37856;BME280;23694;43.274;26.924;2023-09-18T05:06:08;99505.31;;;27.86;43.57
37856;BME280;23694;43.274;26.924;2023-09-18T05:08:43;99500.06;;;28.59;41.32
37856;BME280;23694;43.274;26.924;2023-09-18T05:11:49;99493.00;;;29.17;39.21
37856;BME280;23694;43.274;26.924;2023-09-18T05:14:30;99494.38;;;29.97;37.12
37856;BME280;23694;43.274;26.924;2023-09-18T05:17:05;99495.38;;;30.73;35.27
37856;BME280;23694;43.274;26.924;2023-09-18T05:19:43;99502.50;;;31.65;33.36
37856;BME280;23694;43.274;26.924;2023-09-18T05:22:34;99505.38;;;32.19;31.89
37856;BME280;23694;43.274;26.924;2023-09-18T05:25:20;99507.56;;;30.50;34.25
37856;BME280;23694;43.274;26.924;2023-09-18T05:28:19;99510.13;;;31.57;32.82
37856;BME280;23694;43.274;26.924;2023-09-18T05:30:58;99498.00;;;31.96;31.73
37856;BME280;23694;43.274;26.924;2023-09-18T05:33:34;99504.50;;;32.06;30.07
37856;BME280;23694;43.274;26.924;2023-09-18T05:36:08;99510.19;;;32.16;30.93
37856;BME280;23694;43.274;26.924;2023-09-18T05:39:01;99498.69;;;33.09;29.67
37856;BME280;23694;43.274;26.924;2023-09-18T05:41:47;99500.69;;;33.78;28.74
37856;BME280;23694;43.274;26.924;2023-09-18T05:50:45;99491.09;;;33.58;27.10
37856;BME280;23694;43.274;26.924;2023-09-18T05:53:24;99492.59;;;31.59;29.84
37856;BME280;23694;43.274;26.924;2023-09-18T05:56:04;99491.44;;;29.61;33.82
37856;BME280;23694;43.274;26.924;2023-09-18T05:58:50;99493.56;;;28.07;36.09
37856;BME280;23694;43.274;26.924;2023-09-18T06:01:33;99498.41;;;29.04;35.38
37856;BME280;23694;43.274;26.924;2023-09-18T06:04:30;99504.22;;;29.14;34.96
37856;BME280;23694;43.274;26.924;2023-09-18T06:07:22;99504.31;;;27.46;37.30
37856;BME280;23694;43.274;26.924;2023-09-18T06:10:04;99502.13;;;26.08;40.34
37856;BME280;23694;43.274;26.924;2023-09-18T06:12:52;99510.91;;;25.22;42.55
37856;BME280;23694;43.274;26.924;2023-09-18T06:15:33;99504.13;;;24.59;45.06
37856;BME280;23694;43.274;26.924;2023-09-18T06:18:08;99515.06;;;24.03;47.54
37856;BME280;23694;43.274;26.924;2023-09-18T06:23:39;99504.94;;;22.96;52.01
37856;BME280;23694;43.274;26.924;2023-09-18T06:26:31;99503.78;;;22.58;54.59
37856;BME280;23694;43.274;26.924;2023-09-18T06:29:07;99510.63;;;22.36;56.34
37856;BME280;23694;43.274;26.924;2023-09-18T06:31:41;99509.78;;;22.44;57.46
37856;BME280;23694;43.274;26.924;2023-09-18T06:37:32;99516.63;;;22.79;55.68
37856;BME280;23694;43.274;26.924;2023-09-18T06:40:08;99500.25;;;22.98;55.55
37856;BME280;23694;43.274;26.924;2023-09-18T06:43:01;99507.53;;;23.21;55.50
37856;BME280;23694;43.274;26.924;2023-09-18T06:48:41;99519.28;;;22.71;57.96
37856;BME280;23694;43.274;26.924;2023-09-18T06:57:42;99519.25;;;21.56;64.06
37856;BME280;23694;43.274;26.924;2023-09-18T07:00:44;99518.44;;;21.63;64.88
37856;BME280;23694;43.274;26.924;2023-09-18T07:03:33;99515.81;;;21.79;63.78
37856;BME280;23694;43.274;26.924;2023-09-18T07:06:11;99523.50;;;21.82;64.60
37856;BME280;23694;43.274;26.924;2023-09-18T07:09:04;99522.75;;;21.56;65.27
37856;BME280;23694;43.274;26.924;2023-09-18T07:11:35;99522.81;;;21.38;67.08
37856;BME280;23694;43.274;26.924;2023-09-18T07:20:15;99525.28;;;21.66;65.89
37856;BME280;23694;43.274;26.924;2023-09-18T07:23:04;99525.19;;;22.00;65.67
37856;BME280;23694;43.274;26.924;2023-09-18T07:25:50;99523.72;;;22.05;64.50
37856;BME280;23694;43.274;26.924;2023-09-18T07:28:31;99527.50;;;21.95;63.92
37856;BME280;23694;43.274;26.924;2023-09-18T07:31:08;99524.63;;;21.72;65.76
37856;BME280;23694;43.274;26.924;2023-09-18T07:34:00;99520.63;;;22.18;64.81
37856;BME280;23694;43.274;26.924;2023-09-18T07:36:40;99527.97;;;22.40;63.67
37856;BME280;23694;43.274;26.924;2023-09-18T07:45:11;99521.97;;;22.95;61.27
37856;BME280;23694;43.274;26.924;2023-09-18T07:47:55;99521.41;;;23.16;60.77
37856;BME280;23694;43.274;26.924;2023-09-18T07:50:53;99518.13;;;23.61;59.54
37856;BME280;23694;43.274;26.924;2023-09-18T07:53:40;99508.56;;;23.98;56.34
37856;BME280;23694;43.274;26.924;2023-09-18T07:56:36;99515.31;;;23.86;54.33
37856;BME280;23694;43.274;26.924;2023-09-18T07:59:29;99512.56;;;24.02;54.50
37856;BME280;23694;43.274;26.924;2023-09-18T08:05:35;99503.84;;;23.77;53.30
37856;BME280;23694;43.274;26.924;2023-09-18T08:08:24;99502.94;;;22.98;56.18
37856;BME280;23694;43.274;26.924;2023-09-18T08:11:07;99494.44;;;22.95;56.25
37856;BME280;23694;43.274;26.924;2023-09-18T08:13:57;99487.50;;;23.25;53.74
37856;BME280;23694;43.274;26.924;2023-09-18T08:16:41;99494.41;;;22.70;53.14
37856;BME280;23694;43.274;26.924;2023-09-18T08:22:08;99486.28;;;23.44;53.13
37856;BME280;23694;43.274;26.924;2023-09-18T08:25:00;99487.09;;;23.83;52.90
37856;BME280;23694;43.274;26.924;2023-09-18T08:27:49;99492.50;;;23.75;50.41
37856;BME280;23694;43.274;26.924;2023-09-18T08:30:34;99495.03;;;23.68;50.13
37856;BME280;23694;43.274;26.924;2023-09-18T08:33:08;99484.22;;;23.62;48.90
37856;BME280;23694;43.274;26.924;2023-09-18T08:38:43;99475.44;;;24.30;46.15
37856;BME280;23694;43.274;26.924;2023-09-18T08:41:14;99487.88;;;23.92;45.88
37856;BME280;23694;43.274;26.924;2023-09-18T08:43:54;99479.63;;;23.70;44.82
37856;BME280;23694;43.274;26.924;2023-09-18T08:46:34;99472.16;;;23.89;44.61
37856;BME280;23694;43.274;26.924;2023-09-18T08:49:12;99474.53;;;23.84;43.59
37856;BME280;23694;43.274;26.924;2023-09-18T08:52:02;99483.34;;;23.92;43.72
37856;BME280;23694;43.274;26.924;2023-09-18T09:00:15;99469.47;;;23.66;39.59
37856;BME280;23694;43.274;26.924;2023-09-18T09:03:05;99472.44;;;23.71;39.44
37856;BME280;23694;43.274;26.924;2023-09-18T09:05:46;99457.56;;;23.99;40.00
37856;BME280;23694;43.274;26.924;2023-09-18T09:08:38;99462.09;;;24.82;37.61
37856;BME280;23694;43.274;26.924;2023-09-18T09:14:13;99442.69;;;24.95;37.42
37856;BME280;23694;43.274;26.924;2023-09-18T09:17:01;99456.75;;;24.59;37.98
37856;BME280;23694;43.274;26.924;2023-09-18T09:19:51;99463.94;;;24.44;37.43
37856;BME280;23694;43.274;26.924;2023-09-18T09:22:30;99457.75;;;24.44;38.49
37856;BME280;23694;43.274;26.924;2023-09-18T09:25:24;99450.06;;;24.18;38.45
37856;BME280;23694;43.274;26.924;2023-09-18T09:28:12;99456.50;;;24.09;38.86
37856;BME280;23694;43.274;26.924;2023-09-18T09:30:49;99451.84;;;24.25;38.69
37856;BME280;23694;43.274;26.924;2023-09-18T09:33:49;99448.06;;;24.43;37.72
37856;BME280;23694;43.274;26.924;2023-09-18T09:37:00;99451.41;;;24.59;37.66
37856;BME280;23694;43.274;26.924;2023-09-18T09:39:51;99445.59;;;24.71;36.41
37856;BME280;23694;43.274;26.924;2023-09-18T09:42:55;99436.31;;;24.96;36.41
37856;BME280;23694;43.274;26.924;2023-09-18T09:45:36;99431.03;;;25.32;35.72
37856;BME280;23694;43.274;26.924;2023-09-18T09:48:08;99424.66;;;25.18;35.52
37856;BME280;23694;43.274;26.924;2023-09-18T09:51:00;99424.75;;;24.95;35.63
37856;BME280;23694;43.274;26.924;2023-09-18T09:53:56;99425.25;;;24.99;35.26
37856;BME280;23694;43.274;26.924;2023-09-18T09:56:50;99417.91;;;25.37;34.59
37856;BME280;23694;43.274;26.924;2023-09-18T10:02:41;99416.72;;;25.25;34.56
37856;BME280;23694;43.274;26.924;2023-09-18T10:05:29;99421.31;;;25.31;32.89
37856;BME280;23694;43.274;26.924;2023-09-18T10:11:04;99408.50;;;24.82;33.78
37856;BME280;23694;43.274;26.924;2023-09-18T10:16:34;99401.63;;;24.50;34.54
37856;BME280;23694;43.274;26.924;2023-09-18T10:22:54;99397.56;;;25.43;33.15
37856;BME280;23694;43.274;26.924;2023-09-18T10:25:53;99386.41;;;25.10;32.71
37856;BME280;23694;43.274;26.924;2023-09-18T10:28:32;99387.53;;;25.15;33.02
37856;BME280;23694;43.274;26.924;2023-09-18T10:31:18;99391.19;;;25.29;33.86
37856;BME280;23694;43.274;26.924;2023-09-18T10:34:01;99386.19;;;25.26;32.55
37856;BME280;23694;43.274;26.924;2023-09-18T10:36:50;99376.69;;;25.38;32.64
37856;BME280;23694;43.274;26.924;2023-09-18T10:39:44;99380.38;;;25.37;32.63
37856;BME280;23694;43.274;26.924;2023-09-18T10:42:30;99380.84;;;25.62;32.00
37856;BME280;23694;43.274;26.924;2023-09-18T10:45:09;99374.03;;;25.81;31.70
37856;BME280;23694;43.274;26.924;2023-09-18T10:48:04;99370.13;;;26.26;31.36
37856;BME280;23694;43.274;26.924;2023-09-18T10:50:41;99368.81;;;25.73;31.65
37856;BME280;23694;43.274;26.924;2023-09-18T10:56:33;99358.22;;;25.14;33.14
37856;BME280;23694;43.274;26.924;2023-09-18T10:59:08;99355.81;;;25.98;32.59
37856;BME280;23694;43.274;26.924;2023-09-18T11:04:43;99344.28;;;26.53;30.74
37856;BME280;23694;43.274;26.924;2023-09-18T11:07:30;99347.97;;;25.75;31.20
37856;BME280;23694;43.274;26.924;2023-09-18T11:13:40;99348.13;;;26.37;30.58
37856;BME280;23694;43.274;26.924;2023-09-18T11:16:37;99343.50;;;26.31;31.10
37856;BME280;23694;43.274;26.924;2023-09-18T11:19:27;99352.44;;;26.10;30.29
37856;BME280;23694;43.274;26.924;2023-09-18T11:22:14;99349.00;;;25.95;30.92
37856;BME280;23694;43.274;26.924;2023-09-18T11:28:31;99344.84;;;26.42;29.72
37856;BME280;23694;43.274;26.924;2023-09-18T11:31:04;99352.59;;;26.30;28.79
37856;BME280;23694;43.274;26.924;2023-09-18T11:33:40;99346.09;;;26.46;28.81
37856;BME280;23694;43.274;26.924;2023-09-18T11:36:43;99345.09;;;25.55;29.76
37856;BME280;23694;43.274;26.924;2023-09-18T11:39:38;99344.56;;;24.94;30.21
37856;BME280;23694;43.274;26.924;2023-09-18T11:45:07;99327.44;;;26.10;29.21
37856;BME280;23694;43.274;26.924;2023-09-18T11:48:05;99342.69;;;26.03;28.86
37856;BME280;23694;43.274;26.924;2023-09-18T11:50:53;99327.47;;;25.88;28.44
37856;BME280;23694;43.274;26.924;2023-09-18T11:56:30;99327.00;;;26.06;28.22
37856;BME280;23694;43.274;26.924;2023-09-18T11:59:05;99325.81;;;25.87;28.12
37856;BME280;23694;43.274;26.924;2023-09-18T12:01:57;99320.38;;;26.30;27.99
37856;BME280;23694;43.274;26.924;2023-09-18T12:04:46;99315.69;;;26.39;28.08
37856;BME280;23694;43.274;26.924;2023-09-18T12:07:27;99318.06;;;26.55;27.24
37856;BME280;23694;43.274;26.924;2023-09-18T12:10:14;99305.78;;;26.74;27.39
37856;BME280;23694;43.274;26.924;2023-09-18T12:12:54;99318.00;;;26.76;27.38
37856;BME280;23694;43.274;26.924;2023-09-18T12:15:29;99323.78;;;26.80;27.19
37856;BME280;23694;43.274;26.924;2023-09-18T12:18:11;99309.59;;;26.58;28.85
37856;BME280;23694;43.274;26.924;2023-09-18T12:21:07;99324.66;;;26.25;29.97
37856;BME280;23694;43.274;26.924;2023-09-18T12:32:36;99312.25;;;25.96;29.87
37856;BME280;23694;43.274;26.924;2023-09-18T12:38:17;99308.88;;;26.36;29.58
37856;BME280;23694;43.274;26.924;2023-09-18T12:41:06;99302.88;;;26.34;29.61
37856;BME280;23694;43.274;26.924;2023-09-18T12:43:41;99311.94;;;26.33;29.27
37856;BME280;23694;43.274;26.924;2023-09-18T12:46:21;99300.66;;;26.16;29.90
37856;BME280;23694;43.274;26.924;2023-09-18T12:52:01;99315.22;;;25.22;31.69
37856;BME280;23694;43.274;26.924;2023-09-18T12:57:39;99294.75;;;25.78;31.30
37856;BME280;23694;43.274;26.924;2023-09-18T13:00:47;99293.97;;;26.06;31.45
37856;BME280;23694;43.274;26.924;2023-09-18T13:03:47;99292.81;;;25.94;31.88
37856;BME280;23694;43.274;26.924;2023-09-18T13:09:41;99284.78;;;25.94;32.63
37856;BME280;23694;43.274;26.924;2023-09-18T13:15:41;99282.84;;;25.02;35.21
37856;BME280;23694;43.274;26.924;2023-09-18T13:18:28;99268.28;;;25.11;35.19
37856;BME280;23694;43.274;26.924;2023-09-18T13:21:23;99286.75;;;25.21;35.16
37856;BME280;23694;43.274;26.924;2023-09-18T13:24:06;99275.53;;;24.96;36.31
37856;BME280;23694;43.274;26.924;2023-09-18T13:26:59;99289.38;;;25.14;35.64
37856;BME280;23694;43.274;26.924;2023-09-18T13:29:36;99281.63;;;25.05;36.29
37856;BME280;23694;43.274;26.924;2023-09-18T13:32:23;99290.69;;;24.89;36.49
37856;BME280;23694;43.274;26.924;2023-09-18T13:35:06;99279.72;;;24.84;36.87
37856;BME280;23694;43.274;26.924;2023-09-18T13:37:41;99285.06;;;24.84;37.13
37856;BME280;23694;43.274;26.924;2023-09-18T13:40:25;99295.69;;;24.62;37.64
37856;BME280;23694;43.274;26.924;2023-09-18T13:43:05;99287.03;;;24.75;37.62
37856;BME280;23694;43.274;26.924;2023-09-18T13:45:45;99276.84;;;24.71;37.84
37856;BME280;23694;43.274;26.924;2023-09-18T13:48:24;99289.50;;;24.91;37.72
37856;BME280;23694;43.274;26.924;2023-09-18T13:51:05;99275.75;;;24.80;38.01
37856;BME280;23694;43.274;26.924;2023-09-18T13:53:59;99276.56;;;24.65;38.06
37856;BME280;23694;43.274;26.924;2023-09-18T13:56:38;99280.09;;;24.81;37.76
37856;BME280;23694;43.274;26.924;2023-09-18T13:59:21;99282.53;;;24.97;37.68
37856;BME280;23694;43.274;26.924;2023-09-18T14:02:29;99279.41;;;25.08;37.26
37856;BME280;23694;43.274;26.924;2023-09-18T14:05:07;99278.50;;;24.86;36.58
37856;BME280;23694;43.274;26.924;2023-09-18T14:08:00;99274.81;;;24.87;37.09
37856;BME280;23694;43.274;26.924;2023-09-18T14:13:47;99269.94;;;24.61;37.25
37856;BME280;23694;43.274;26.924;2023-09-18T14:19:06;99271.03;;;24.82;38.76
37856;BME280;23694;43.274;26.924;2023-09-18T14:22:05;99268.53;;;24.65;39.66
37856;BME280;23694;43.274;26.924;2023-09-18T14:27:39;99274.66;;;24.45;39.54
37856;BME280;23694;43.274;26.924;2023-09-18T14:33:04;99280.50;;;23.96;41.47
37856;BME280;23694;43.274;26.924;2023-09-18T14:35:35;99266.63;;;23.78;41.74
37856;BME280;23694;43.274;26.924;2023-09-18T14:38:12;99272.72;;;23.86;41.84
37856;BME280;23694;43.274;26.924;2023-09-18T14:43:41;99265.50;;;23.49;43.08
37856;BME280;23694;43.274;26.924;2023-09-18T14:46:31;99274.19;;;23.51;43.17
37856;BME280;23694;43.274;26.924;2023-09-18T14:49:07;99268.09;;;23.34;43.82
37856;BME280;23694;43.274;26.924;2023-09-18T14:52:01;99271.13;;;23.62;43.11
37856;BME280;23694;43.274;26.924;2023-09-18T14:54:56;99263.59;;;23.81;42.70
37856;BME280;23694;43.274;26.924;2023-09-18T14:57:43;99271.44;;;23.82;42.67
37856;BME280;23694;43.274;26.924;2023-09-18T15:00:23;99273.63;;;23.79;42.84
37856;BME280;23694;43.274;26.924;2023-09-18T15:03:03;99277.50;;;23.76;43.46
37856;BME280;23694;43.274;26.924;2023-09-18T15:05:41;99276.94;;;23.35;43.18
37856;BME280;23694;43.274;26.924;2023-09-18T15:11:07;99282.13;;;23.36;43.83
37856;BME280;23694;43.274;26.924;2023-09-18T15:13:47;99264.53;;;23.19;44.29
37856;BME280;23694;43.274;26.924;2023-09-18T15:16:47;99269.94;;;23.34;44.29
37856;BME280;23694;43.274;26.924;2023-09-18T15:19:33;99272.69;;;23.26;44.44
37856;BME280;23694;43.274;26.924;2023-09-18T15:22:35;99268.69;;;23.22;44.46
37856;BME280;23694;43.274;26.924;2023-09-18T15:25:26;99265.91;;;23.15;44.60
37856;BME280;23694;43.274;26.924;2023-09-18T15:28:04;99260.09;;;23.12;44.87
37856;BME280;23694;43.274;26.924;2023-09-18T15:30:44;99270.78;;;23.12;45.39
37856;BME280;23694;43.274;26.924;2023-09-18T15:33:39;99282.13;;;23.14;45.20
37856;BME280;23694;43.274;26.924;2023-09-18T15:39:04;99272.38;;;22.98;45.60
37856;BME280;23694;43.274;26.924;2023-09-18T15:41:46;99268.06;;;22.89;46.16
37856;BME280;23694;43.274;26.924;2023-09-18T15:47:26;99269.25;;;22.39;46.67
37856;BME280;23694;43.274;26.924;2023-09-18T15:50:03;99273.75;;;22.38;46.92
37856;BME280;23694;43.274;26.924;2023-09-18T15:52:39;99266.84;;;22.13;47.59
37856;BME280;23694;43.274;26.924;2023-09-18T15:55:16;99261.50;;;22.13;48.26
37856;BME280;23694;43.274;26.924;2023-09-18T15:58:02;99268.97;;;22.26;47.90
37856;BME280;23694;43.274;26.924;2023-09-18T16:00:58;99260.97;;;22.18;48.09
37856;BME280;23694;43.274;26.924;2023-09-18T16:03:41;99268.34;;;22.16;47.94
37856;BME280;23694;43.274;26.924;2023-09-18T16:09:07;99262.13;;;21.99;48.70
37856;BME280;23694;43.274;26.924;2023-09-18T16:11:43;99277.69;;;21.63;49.20
37856;BME280;23694;43.274;26.924;2023-09-18T16:14:18;99276.19;;;21.52;49.63
37856;BME280;23694;43.274;26.924;2023-09-18T16:17:03;99276.53;;;21.49;49.69
37856;BME280;23694;43.274;26.924;2023-09-18T16:19:52;99274.19;;;21.46;50.12
37856;BME280;23694;43.274;26.924;2023-09-18T16:22:29;99276.81;;;21.38;50.32
37856;BME280;23694;43.274;26.924;2023-09-18T16:25:05;99279.16;;;21.25;50.69
37856;BME280;23694;43.274;26.924;2023-09-18T16:27:58;99278.44;;;21.14;51.00
37856;BME280;23694;43.274;26.924;2023-09-18T16:30:39;99279.09;;;21.16;51.40
37856;BME280;23694;43.274;26.924;2023-09-18T16:33:27;99286.59;;;21.21;51.64
37856;BME280;23694;43.274;26.924;2023-09-18T16:39:26;99289.13;;;20.80;53.64
37856;BME280;23694;43.274;26.924;2023-09-18T16:42:07;99292.09;;;20.69;54.62
37856;BME280;23694;43.274;26.924;2023-09-18T16:44:56;99287.78;;;20.68;54.88
37856;BME280;23694;43.274;26.924;2023-09-18T16:47:59;99299.88;;;20.63;55.53
37856;BME280;23694;43.274;26.924;2023-09-18T16:50:38;99306.69;;;20.57;56.27
37856;BME280;23694;43.274;26.924;2023-09-18T16:53:07;99299.84;;;20.54;56.29
37856;BME280;23694;43.274;26.924;2023-09-18T16:55:54;99310.47;;;20.46;57.51
37856;BME280;23694;43.274;26.924;2023-09-18T16:58:35;99312.69;;;20.59;56.90
37856;BME280;23694;43.274;26.924;2023-09-18T17:01:21;99309.19;;;20.58;57.24